Time;durP1;ratioP1;P1;durP2;ratioP2;P2;SDS_P1;SDS_P2;PMS_P1;PMS_P2;Temp;Humidity;BMP_temperature;BMP_pressure;BME280_temperature;BME280_humidity;BME280_pressure;Samples;Min_cycle;Max_cycle;Signal;HPM_P1;HPM_P2
2023/06/19 00:00:03;;;;;;;12.43;11.33;;;22.00;86.40;;;;;;6378841;27;20224;-65
2023/06/19 00:03:07;;;;;;;12.67;11.57;;;22.00;86.60;;;;;;6378554;27;20558;-64
2023/06/19 00:06:12;;;;;;;11.93;10.83;;;21.90;86.80;;;;;;6377320;27;20684;-65
2023/06/19 00:09:15;;;;;;;11.97;10.97;;;21.80;87.10;;;;;;6378541;27;20295;-64
2023/06/19 00:12:18;;;;;;;11.53;10.60;;;21.70;87.00;;;;;;6378343;27;20228;-64
2023/06/19 00:15:22;;;;;;;12.07;11.07;;;21.70;87.10;;;;;;6378465;27;20252;-63
2023/06/19 00:18:26;;;;;;;11.67;10.67;;;21.60;87.80;;;;;;6378096;27;20241;-64
2023/06/19 00:21:33;;;;;;;11.33;10.40;;;21.50;88.50;;;;;;6374358;27;20684;-64
2023/06/19 00:24:36;;;;;;;11.97;10.87;;;21.50;89.10;;;;;;6378406;27;20278;-63
2023/06/19 00:27:39;;;;;;;11.57;10.57;;;21.40;89.50;;;;;;6378016;27;20691;-64
2023/06/19 00:30:42;;;;;;;11.73;10.77;;;21.40;90.00;;;;;;6377716;27;20224;-64
2023/06/19 00:33:48;;;;;;;11.77;10.77;;;21.30;90.20;;;;;;6377657;27;20235;-64
2023/06/19 00:36:55;;;;;;;11.43;10.37;;;21.40;90.60;;;;;;6377448;27;20274;-64
2023/06/19 00:39:59;;;;;;;10.83;9.83;;;21.40;90.80;;;;;;6377484;27;20297;-64
2023/06/19 00:43:03;;;;;;;11.83;10.83;;;21.30;90.80;;;;;;6377423;27;20648;-65
2023/06/19 00:46:06;;;;;;;11.90;10.87;;;21.20;90.90;;;;;;6377269;27;20233;-64
2023/06/19 00:49:11;;;;;;;11.70;10.70;;;21.20;91.20;;;;;;6377388;27;20255;-64
2023/06/19 00:52:16;;;;;;;12.33;11.27;;;21.20;91.20;;;;;;6377078;27;20231;-64
2023/06/19 00:55:20;;;;;;;12.70;11.60;;;21.20;91.30;;;;;;6377028;27;20225;-64
2023/06/19 00:58:23;;;;;;;12.20;11.10;;;21.20;91.30;;;;;;6376796;27;20212;-64
2023/06/19 01:01:27;;;;;;;11.20;10.20;;;21.10;91.50;;;;;;6377081;27;20750;-64
2023/06/19 01:04:32;;;;;;;12.97;11.93;;;21.20;91.50;;;;;;6376494;27;20295;-64
2023/06/19 01:07:45;;;;;;;11.47;10.47;;;21.10;91.60;;;;;;6376532;27;20633;-64
2023/06/19 01:10:52;;;;;;;12.23;11.17;;;21.10;91.80;;;;;;6376512;27;20300;-63
2023/06/19 01:13:59;;;;;;;11.03;10.10;;;21.10;91.70;;;;;;6376605;27;20224;-64
2023/06/19 01:17:03;;;;;;;12.43;11.13;;;21.00;91.80;;;;;;6376376;27;20224;-64
2023/06/19 01:20:11;;;;;;;11.47;10.47;;;21.00;92.00;;;;;;6376311;27;20661;-64
2023/06/19 01:23:15;;;;;;;11.33;10.30;;;21.10;92.20;;;;;;6376108;27;20345;-64
2023/06/19 01:26:19;;;;;;;12.90;11.60;;;21.00;92.30;;;;;;6376181;27;20235;-64
2023/06/19 01:29:22;;;;;;;12.07;11.10;;;21.00;92.40;;;;;;6375665;27;20683;-63
2023/06/19 01:32:32;;;;;;;12.23;11.23;;;20.90;92.60;;;;;;6375887;27;20676;-63
2023/06/19 01:35:39;;;;;;;12.17;11.17;;;20.80;92.70;;;;;;6366361;27;20260;-64
2023/06/19 01:38:45;;;;;;;11.47;10.57;;;20.70;92.80;;;;;;6376108;27;20244;-64
2023/06/19 01:41:49;;;;;;;11.17;10.10;;;20.70;93.20;;;;;;6375574;27;20229;-64
2023/06/19 01:44:52;;;;;;;12.53;11.33;;;20.60;93.30;;;;;;6375586;27;20668;-63
2023/06/19 01:47:56;;;;;;;12.10;11.10;;;20.40;93.40;;;;;;6375516;27;20239;-63
2023/06/19 01:50:59;;;;;;;11.93;10.93;;;20.40;93.90;;;;;;6375507;27;20332;-63
2023/06/19 01:54:05;;;;;;;11.53;10.63;;;20.40;94.20;;;;;;6375630;27;20649;-63
2023/06/19 01:57:09;;;;;;;12.40;11.17;;;20.40;94.30;;;;;;6375512;27;20237;-63
2023/06/19 02:00:13;;;;;;;12.60;11.50;;;20.40;94.20;;;;;;6375346;27;20333;-63
2023/06/19 02:03:16;;;;;;;11.73;10.73;;;20.30;94.20;;;;;;6375435;27;20225;-63
2023/06/19 02:06:21;;;;;;;12.43;11.27;;;20.20;94.50;;;;;;6375276;27;20240;-63
2023/06/19 02:09:25;;;;;;;13.13;11.93;;;20.20;94.70;;;;;;6375130;27;20227;-63
2023/06/19 02:12:29;;;;;;;13.00;11.67;;;20.20;94.90;;;;;;6375342;27;20239;-63
2023/06/19 02:15:32;;;;;;;11.60;10.50;;;20.00;94.90;;;;;;6375010;27;20545;-63
2023/06/19 02:18:35;;;;;;;12.77;11.57;;;20.00;95.20;;;;;;6375057;27;20235;-63
2023/06/19 02:21:38;;;;;;;12.33;11.33;;;19.90;95.30;;;;;;6375027;28;20228;-63
2023/06/19 02:24:44;;;;;;;11.87;10.90;;;19.90;95.70;;;;;;6374829;28;20243;-63
2023/06/19 02:27:47;;;;;;;12.60;11.40;;;19.80;96.10;;;;;;6374741;28;20235;-63
2023/06/19 02:30:50;;;;;;;12.53;11.33;;;19.70;96.30;;;;;;6378003;27;20236;-63
2023/06/19 02:33:53;;;;;;;12.47;11.37;;;19.70;96.50;;;;;;6380143;27;20221;-61
2023/06/19 02:36:57;;;;;;;12.67;11.57;;;19.60;96.80;;;;;;6379825;27;20238;-62
2023/06/19 02:40:03;;;;;;;12.70;11.60;;;19.60;96.90;;;;;;6375339;27;20232;-61
2023/06/19 02:43:06;;;;;;;11.73;10.70;;;19.60;97.00;;;;;;6379756;27;20220;-61
2023/06/19 02:46:09;;;;;;;12.27;11.23;;;19.60;97.20;;;;;;6379612;27;20233;-61
2023/06/19 02:49:15;;;;;;;11.50;10.50;;;19.50;97.40;;;;;;6379382;27;20225;-61
2023/06/19 02:52:18;;;;;;;12.93;11.63;;;19.40;97.80;;;;;;6379601;27;20231;-61
2023/06/19 02:55:23;;;;;;;12.70;11.60;;;19.40;97.90;;;;;;6379071;27;20224;-61
2023/06/19 02:58:26;;;;;;;11.67;10.67;;;19.40;98.00;;;;;;6379830;27;20522;-61
2023/06/19 03:01:29;;;;;;;11.30;10.40;;;19.40;98.10;;;;;;6379765;27;20225;-61
2023/06/19 03:04:33;;;;;;;13.20;12.00;;;19.30;98.40;;;;;;6379371;27;20807;-61
2023/06/19 03:07:36;;;;;;;11.47;10.47;;;19.20;98.70;;;;;;6379541;27;20196;-61
2023/06/19 03:10:40;;;;;;;12.90;11.80;;;19.20;98.70;;;;;;6379207;27;20216;-61
2023/06/19 03:13:48;;;;;;;11.47;10.27;;;19.20;98.80;;;;;;6379230;27;20652;-61
2023/06/19 03:16:52;;;;;;;11.43;10.43;;;19.10;98.90;;;;;;6379233;27;20224;-62
2023/06/19 03:19:55;;;;;;;10.67;9.77;;;19.10;99.20;;;;;;6378901;27;20234;-61
2023/06/19 03:22:58;;;;;;;14.10;12.07;;;19.10;99.40;;;;;;6379144;27;20231;-61
2023/06/19 03:26:03;;;;;;;12.67;11.47;;;19.10;99.40;;;;;;6389683;27;20220;-61
2023/06/19 03:29:06;;;;;;;11.93;10.93;;;19.10;99.50;;;;;;6404562;27;20560;-61
2023/06/19 03:32:09;;;;;;;12.50;11.43;;;19.10;99.50;;;;;;6404604;27;20220;-61
2023/06/19 03:35:12;;;;;;;12.27;11.27;;;19.10;99.50;;;;;;6404766;27;20259;-61
2023/06/19 03:38:16;;;;;;;12.90;11.53;;;19.10;99.50;;;;;;6403903;27;20231;-64
2023/06/19 03:41:20;;;;;;;12.60;11.57;;;19.10;99.60;;;;;;6398998;27;20223;-63
2023/06/19 03:44:23;;;;;;;13.07;11.97;;;19.10;99.60;;;;;;6403455;27;20318;-64
2023/06/19 03:47:27;;;;;;;12.07;10.97;;;19.10;99.70;;;;;;6403885;27;20330;-64
2023/06/19 03:50:30;;;;;;;14.50;12.47;;;19.10;99.70;;;;;;6403138;27;20308;-64
2023/06/19 03:53:34;;;;;;;11.97;10.97;;;19.00;99.80;;;;;;6403298;27;20567;-64
2023/06/19 03:56:39;;;;;;;13.20;12.00;;;19.00;99.90;;;;;;6403799;27;20240;-64
2023/06/19 03:59:42;;;;;;;12.53;11.33;;;19.00;99.90;;;;;;6403530;27;20752;-64
2023/06/19 04:02:47;;;;;;;12.43;11.40;;;19.00;99.90;;;;;;6403605;27;20319;-64
2023/06/19 04:05:50;;;;;;;13.20;12.03;;;19.10;99.90;;;;;;6403881;27;20220;-64
2023/06/19 04:08:53;;;;;;;12.10;11.10;;;19.10;99.90;;;;;;6403553;27;20711;-64
2023/06/19 04:11:58;;;;;;;11.40;10.47;;;19.20;99.90;;;;;;6403054;27;20578;-64
2023/06/19 04:15:01;;;;;;;15.63;13.27;;;19.20;99.90;;;;;;6403464;27;20235;-64
2023/06/19 04:18:04;;;;;;;14.00;12.70;;;19.20;99.80;;;;;;6403065;27;20540;-64
2023/06/19 04:21:08;;;;;;;12.83;11.73;;;19.30;99.70;;;;;;6403280;27;20316;-64
2023/06/19 04:24:11;;;;;;;12.90;11.90;;;19.40;99.60;;;;;;6403224;27;20224;-64
2023/06/19 04:27:15;;;;;;;13.13;11.77;;;19.50;99.40;;;;;;6403032;27;20683;-64
2023/06/19 04:30:20;;;;;;;16.30;12.90;;;19.60;99.10;;;;;;6402811;27;20232;-64
2023/06/19 04:33:24;;;;;;;14.30;12.90;;;19.70;99.00;;;;;;6403213;27;20262;-64
2023/06/19 04:36:28;;;;;;;13.50;12.23;;;19.80;98.80;;;;;;6402660;27;20305;-64
2023/06/19 04:39:31;;;;;;;14.43;13.20;;;19.90;98.70;;;;;;6402350;27;20666;-63
2023/06/19 04:42:38;;;;;;;14.67;13.30;;;20.00;98.30;;;;;;6402241;27;20559;-63
2023/06/19 04:45:42;;;;;;;15.47;13.97;;;20.10;98.10;;;;;;6401731;27;20243;-63
2023/06/19 04:48:45;;;;;;;14.80;13.50;;;20.20;98.10;;;;;;6402403;27;20235;-64
2023/06/19 04:51:48;;;;;;;13.93;12.83;;;20.40;97.90;;;;;;6401814;27;20698;-64
2023/06/19 04:54:51;;;;;;;14.43;13.13;;;20.50;97.70;;;;;;6402208;27;20311;-64
2023/06/19 04:57:56;;;;;;;13.83;12.73;;;20.60;97.60;;;;;;6402017;27;20223;-64
2023/06/19 05:00:59;;;;;;;13.57;12.37;;;20.80;97.20;;;;;;6402153;27;20228;-64
2023/06/19 05:04:03;;;;;;;15.40;13.87;;;21.00;97.10;;;;;;6401952;27;20311;-64
2023/06/19 05:07:07;;;;;;;14.87;13.37;;;21.10;96.70;;;;;;6401193;27;20342;-64
2023/06/19 05:10:11;;;;;;;14.63;13.10;;;21.20;96.30;;;;;;6401985;27;20671;-64
2023/06/19 05:13:18;;;;;;;13.53;12.43;;;21.30;96.10;;;;;;6401543;27;20271;-64
2023/06/19 05:16:22;;;;;;;15.30;13.90;;;21.50;96.00;;;;;;6401800;27;20322;-64
2023/06/19 05:19:26;;;;;;;15.03;13.53;;;21.60;95.10;;;;;;6401095;27;20692;-64
2023/06/19 05:22:31;;;;;;;15.80;14.30;;;21.70;95.20;;;;;;6401212;27;20204;-64
2023/06/19 05:25:34;;;;;;;15.87;14.43;;;21.90;95.00;;;;;;6401464;27;20207;-64
2023/06/19 05:28:39;;;;;;;13.63;12.23;;;22.00;94.60;;;;;;6401757;27;20207;-64
2023/06/19 05:31:42;;;;;;;13.30;12.10;;;22.10;94.00;;;;;;6401132;27;20257;-64
2023/06/19 05:34:45;;;;;;;14.70;12.70;;;22.30;93.80;;;;;;6401140;27;20224;-64
2023/06/19 05:37:48;;;;;;;15.93;14.30;;;22.40;93.70;;;;;;6402045;27;20275;-65
2023/06/19 05:40:52;;;;;;;15.17;13.20;;;22.50;93.00;;;;;;6401549;27;20234;-64
2023/06/19 05:43:56;;;;;;;14.57;13.20;;;22.60;92.90;;;;;;6401185;27;20671;-65
2023/06/19 05:47:00;;;;;;;15.80;14.30;;;22.70;92.90;;;;;;6401134;27;20228;-64
2023/06/19 05:50:03;;;;;;;15.90;14.30;;;22.80;92.70;;;;;;6391853;27;20574;-64
2023/06/19 05:53:06;;;;;;;15.07;13.63;;;23.00;92.70;;;;;;6401544;27;20248;-65
2023/06/19 05:56:10;;;;;;;15.90;14.10;;;23.10;92.10;;;;;;6401894;27;20230;-65
2023/06/19 05:59:15;;;;;;;15.77;14.10;;;23.20;91.70;;;;;;6400917;27;20238;-65
2023/06/19 06:02:19;;;;;;;15.60;14.20;;;23.30;91.30;;;;;;6401492;27;20231;-65
2023/06/19 06:05:24;;;;;;;14.40;12.97;;;23.30;91.40;;;;;;6400547;27;20239;-65
2023/06/19 06:08:27;;;;;;;15.53;14.20;;;23.50;91.40;;;;;;6401029;27;20303;-65
2023/06/19 06:11:30;;;;;;;16.40;14.17;;;23.80;90.70;;;;;;6400537;27;20232;-65
2023/06/19 06:14:36;;;;;;;16.70;14.70;;;24.10;90.10;;;;;;6401014;27;20307;-64
2023/06/19 06:17:39;;;;;;;15.10;13.80;;;24.40;89.30;;;;;;6382592;27;20220;-64
2023/06/19 06:20:42;;;;;;;14.57;13.23;;;25.00;88.10;;;;;;6400944;27;20231;-65
2023/06/19 06:23:47;;;;;;;15.67;14.10;;;25.60;85.80;;;;;;6400537;27;20307;-64
2023/06/19 06:26:50;;;;;;;15.67;14.27;;;26.20;84.00;;;;;;6383053;27;20338;-64
2023/06/19 06:29:55;;;;;;;16.20;14.50;;;26.60;82.40;;;;;;6400243;27;20554;-66
2023/06/19 06:32:58;;;;;;;15.83;14.33;;;27.20;79.30;;;;;;6400430;27;20238;-64
2023/06/19 06:36:02;;;;;;;15.50;14.10;;;27.60;76.50;;;;;;6401044;27;20223;-64
2023/06/19 06:39:05;;;;;;;15.67;14.07;;;28.00;73.70;;;;;;6400514;27;20254;-65
2023/06/19 06:42:08;;;;;;;15.33;14.13;;;28.30;72.50;;;;;;6400196;27;20332;-64
2023/06/19 06:45:13;;;;;;;14.80;13.33;;;28.60;71.70;;;;;;6400406;27;20239;-64
2023/06/19 06:48:17;;;;;;;14.97;13.63;;;29.10;70.20;;;;;;6400132;27;20223;-65
2023/06/19 06:51:22;;;;;;;16.77;15.13;;;29.80;67.00;;;;;;6400064;27;20364;-65
2023/06/19 06:54:25;;;;;;;15.98;14.48;;;30.50;64.30;;;;;;6391523;27;20310;-65
2023/06/19 06:57:28;;;;;;;14.95;13.30;;;31.10;61.00;;;;;;6399945;27;20258;-65
2023/06/19 07:00:33;;;;;;;14.88;13.57;;;31.60;59.00;;;;;;6400036;27;20689;-65
2023/06/19 07:03:36;;;;;;;16.38;14.88;;;32.10;57.40;;;;;;6400447;27;20231;-65
2023/06/19 07:06:39;;;;;;;16.63;14.57;;;32.80;54.80;;;;;;6400180;27;20234;-65
2023/06/19 07:09:42;;;;;;;15.60;14.10;;;32.60;53.60;;;;;;6399684;27;20223;-64
2023/06/19 07:12:47;;;;;;;16.73;14.98;;;32.70;53.40;;;;;;6399940;27;20223;-64
2023/06/19 07:15:51;;;;;;;16.55;14.65;;;33.30;51.90;;;;;;6401053;27;20231;-64
2023/06/19 07:18:55;;;;;;;15.63;14.13;;;33.80;50.70;;;;;;6404744;27;20438;-65
2023/06/19 07:21:58;;;;;;;16.25;14.23;;;34.30;49.20;;;;;;6397038;27;20732;-64
2023/06/19 07:25:02;;;;;;;15.75;14.27;;;34.60;48.10;;;;;;6386515;27;20212;-64
2023/06/19 07:28:05;;;;;;;15.60;13.60;;;35.10;47.20;;;;;;6392518;27;20683;-64
2023/06/19 07:31:09;;;;;;;14.13;12.93;;;35.90;45.80;;;;;;6387235;27;20216;-64
2023/06/19 07:34:13;;;;;;;14.32;13.23;;;36.60;44.40;;;;;;6379798;27;20224;-65
2023/06/19 07:37:18;;;;;;;15.85;14.55;;;36.80;43.30;;;;;;6377883;27;20224;-65
2023/06/19 07:40:21;;;;;;;16.15;14.60;;;36.80;42.50;;;;;;6378626;27;20232;-66
2023/06/19 07:43:25;;;;;;;15.93;14.38;;;36.60;42.50;;;;;;6378762;27;20242;-65
2023/06/19 07:46:29;;;;;;;14.00;12.70;;;36.40;42.90;;;;;;6377913;27;20246;-65
2023/06/19 07:49:33;;;;;;;15.73;14.30;;;35.90;43.10;;;;;;6377966;27;20664;-65
2023/06/19 07:52:36;;;;;;;17.85;13.80;;;35.40;44.00;;;;;;6378519;27;20200;-66
2023/06/19 07:55:39;;;;;;;17.42;13.55;;;35.00;44.10;;;;;;6377859;27;20219;-65
2023/06/19 07:58:42;;;;;;;18.80;16.13;;;34.70;44.90;;;;;;6355127;27;20228;-64
2023/06/19 08:01:47;;;;;;;16.90;15.20;;;34.00;45.50;;;;;;6359492;27;20212;-64
2023/06/19 08:04:50;;;;;;;16.98;15.25;;;32.90;47.40;;;;;;6378037;27;20284;-64
2023/06/19 08:07:53;;;;;;;17.15;15.30;;;32.50;49.00;;;;;;6356603;27;20250;-64
2023/06/19 08:10:56;;;;;;;17.15;14.23;;;32.40;49.50;;;;;;6352244;28;20229;-66
2023/06/19 08:13:59;;;;;;;16.58;15.00;;;32.20;49.70;;;;;;6352741;27;20220;-64
2023/06/19 08:17:04;;;;;;;15.23;13.85;;;32.20;49.30;;;;;;6377741;27;20224;-64
2023/06/19 08:20:09;;;;;;;15.45;13.65;;;31.90;50.00;;;;;;6377572;27;20240;-64
2023/06/19 08:23:13;;;;;;;15.68;14.43;;;31.80;50.20;;;;;;6377760;27;20230;-66
2023/06/19 08:26:16;;;;;;;15.75;14.45;;;31.70;50.10;;;;;;6377763;27;20224;-64
2023/06/19 08:29:19;;;;;;;15.85;14.25;;;31.30;50.20;;;;;;6375744;27;20238;-63
2023/06/19 08:32:24;;;;;;;17.52;15.70;;;31.30;51.60;;;;;;6365305;27;20233;-63
2023/06/19 08:35:28;;;;;;;14.40;13.10;;;31.10;53.40;;;;;;6382489;27;20223;-63
2023/06/19 08:38:31;;;;;;;16.40;15.00;;;31.00;52.80;;;;;;6403146;27;20554;-63
2023/06/19 08:41:34;;;;;;;15.98;14.68;;;31.00;52.80;;;;;;6402596;27;20224;-63
2023/06/19 08:44:38;;;;;;;15.13;13.93;;;31.00;53.00;;;;;;6403429;27;20315;-62
2023/06/19 08:47:42;;;;;;;16.17;14.80;;;31.00;53.20;;;;;;6402864;27;20228;-62
2023/06/19 08:50:46;;;;;;;17.17;15.55;;;31.00;52.80;;;;;;6402115;27;20308;-62
2023/06/19 08:53:51;;;;;;;16.05;14.65;;;31.00;53.30;;;;;;6402551;27;20238;-62
2023/06/19 08:56:54;;;;;;;15.77;14.52;;;31.10;53.50;;;;;;6402342;27;20270;-63
2023/06/19 09:00:00;;;;;;;15.75;14.20;;;31.10;53.20;;;;;;6351894;27;20240;-63
2023/06/19 09:03:04;;;;;;;15.07;13.98;;;31.20;52.90;;;;;;6345828;28;20603;-63
2023/06/19 09:06:17;;;;;;;15.48;14.35;;;31.30;52.50;;;;;;6370851;27;20260;-62
2023/06/19 09:09:22;;;;;;;15.07;13.88;;;31.30;52.20;;;;;;6401984;27;20223;-62
2023/06/19 09:12:25;;;;;;;14.98;13.88;;;31.30;51.70;;;;;;6401852;27;20224;-62
2023/06/19 09:15:31;;;;;;;15.65;14.45;;;31.20;51.60;;;;;;6401868;27;20243;-62
2023/06/19 09:18:46;;;;;;;13.73;12.68;;;31.30;51.20;;;;;;6393422;27;20215;-62
2023/06/19 09:21:49;;;;;;;15.18;13.88;;;31.30;51.00;;;;;;6386103;27;20557;-62
2023/06/19 09:24:52;;;;;;;15.95;14.68;;;31.30;51.40;;;;;;6378046;27;20228;-62
2023/06/19 09:27:56;;;;;;;14.20;13.05;;;31.10;51.40;;;;;;6375469;27;20230;-63
2023/06/19 09:31:00;;;;;;;15.52;14.30;;;30.80;52.60;;;;;;6375778;27;20682;-66
2023/06/19 09:34:05;;;;;;;15.80;14.30;;;30.90;52.50;;;;;;6375701;27;20536;-64
2023/06/19 09:37:10;;;;;;;33.75;16.58;;;31.00;51.80;;;;;;6375220;27;20672;-65
2023/06/19 09:40:13;;;;;;;14.45;13.35;;;31.20;51.40;;;;;;6375224;27;20333;-63
2023/06/19 09:43:20;;;;;;;14.52;13.23;;;31.30;52.00;;;;;;6375387;27;20327;-62
2023/06/19 09:46:28;;;;;;;14.20;13.10;;;31.30;51.70;;;;;;6375530;27;20236;-62
2023/06/19 09:49:35;;;;;;;14.10;13.10;;;31.10;51.70;;;;;;6375387;27;20224;-62
2023/06/19 09:52:39;;;;;;;12.70;11.82;;;31.00;52.00;;;;;;6375528;27;20197;-65
2023/06/19 09:55:43;;;;;;;14.25;13.07;;;31.00;51.90;;;;;;6375004;27;20256;-62
2023/06/19 09:58:46;;;;;;;13.07;12.07;;;30.90;52.00;;;;;;6370419;27;20222;-62
2023/06/19 10:01:50;;;;;;;14.13;13.00;;;30.80;51.80;;;;;;6349478;28;20547;-65
2023/06/19 10:04:57;;;;;;;13.15;11.88;;;30.90;51.50;;;;;;6345180;28;20229;-64
2023/06/19 10:08:02;;;;;;;12.75;11.82;;;31.00;50.70;;;;;;6398947;27;20228;-63
2023/06/19 10:11:05;;;;;;;14.68;13.65;;;31.10;51.90;;;;;;6400791;27;20306;-64
2023/06/19 10:14:08;;;;;;;14.38;13.27;;;31.10;51.60;;;;;;6396000;27;20249;-62
2023/06/19 10:17:12;;;;;;;14.32;13.23;;;31.20;52.10;;;;;;6385023;27;20298;-62
2023/06/19 10:20:31;;;;;;;15.18;13.98;;;31.30;52.10;;;;;;6390165;27;20250;-63
2023/06/19 10:23:37;;;;;;;13.93;12.93;;;31.30;51.70;;;;;;6379659;27;20329;-62
2023/06/19 10:26:40;;;;;;;14.48;13.10;;;30.90;52.70;;;;;;6377231;27;20227;-62
2023/06/19 10:29:43;;;;;;;13.05;11.85;;;31.00;52.60;;;;;;6400223;27;20227;-62
2023/06/19 10:33:00;;;;;;;13.23;12.07;;;31.30;51.50;;;;;;6385180;27;20240;-62
2023/06/19 10:36:15;;;;;;;13.90;12.45;;;31.60;51.40;;;;;;6384003;27;20219;-63
2023/06/19 10:39:18;;;;;;;13.27;12.07;;;31.80;50.70;;;;;;6400118;27;20234;-63
2023/06/19 10:42:22;;;;;;;12.98;11.88;;;31.80;50.40;;;;;;6400682;27;20223;-62
2023/06/19 10:45:28;;;;;;;14.15;12.95;;;31.80;50.40;;;;;;6400129;27;20252;-62
2023/06/19 10:48:31;;;;;;;13.75;12.65;;;32.00;50.20;;;;;;6400388;27;20364;-63
2023/06/19 10:51:37;;;;;;;14.38;13.30;;;31.90;50.00;;;;;;6402448;27;20223;-62
2023/06/19 10:54:41;;;;;;;13.57;12.57;;;31.90;49.60;;;;;;6405365;27;20227;-62
2023/06/19 10:57:46;;;;;;;14.13;12.93;;;31.90;48.90;;;;;;6398140;27;20303;-63
2023/06/19 11:00:49;;;;;;;13.68;12.25;;;32.20;49.10;;;;;;6358524;27;20569;-63
2023/06/19 11:03:52;;;;;;;13.07;11.95;;;32.20;48.80;;;;;;6384950;27;20235;-63
2023/06/19 11:06:57;;;;;;;14.10;12.68;;;32.20;48.90;;;;;;6395055;27;20659;-62
2023/06/19 11:10:01;;;;;;;14.32;13.13;;;32.20;48.60;;;;;;6400524;27;20227;-63
2023/06/19 11:13:04;;;;;;;13.68;12.48;;;32.20;48.90;;;;;;6405089;27;20234;-63
2023/06/19 11:16:07;;;;;;;13.63;12.65;;;32.40;48.50;;;;;;6405767;27;20220;-63
2023/06/19 11:19:14;;;;;;;13.43;12.43;;;32.60;48.30;;;;;;6405098;27;20570;-63
2023/06/19 11:22:19;;;;;;;12.75;11.85;;;32.80;49.00;;;;;;6405707;27;20266;-62
2023/06/19 11:25:22;;;;;;;14.45;13.43;;;32.90;48.90;;;;;;6406056;27;20697;-63
2023/06/19 11:28:29;;;;;;;13.32;12.40;;;32.70;49.10;;;;;;6405895;27;20234;-63
2023/06/19 11:31:34;;;;;;;13.50;12.50;;;32.50;49.70;;;;;;6404303;27;20302;-63
2023/06/19 11:34:38;;;;;;;13.90;12.63;;;32.80;49.70;;;;;;6404555;27;20278;-64
2023/06/19 11:37:44;;;;;;;14.70;13.60;;;32.80;50.00;;;;;;6404636;27;20214;-64
2023/06/19 11:40:48;;;;;;;14.35;13.02;;;32.90;49.80;;;;;;6404344;27;22481;-64
2023/06/19 11:43:51;;;;;;;14.13;12.93;;;33.00;50.30;;;;;;6404710;27;20220;-62
2023/06/19 11:46:58;;;;;;;15.45;13.88;;;33.00;49.70;;;;;;6403978;27;20570;-63
2023/06/19 11:50:07;;;;;;;15.13;13.82;;;32.80;49.60;;;;;;6403956;27;20234;-63
2023/06/19 11:53:13;;;;;;;14.70;13.35;;;33.00;49.40;;;;;;6404201;27;20230;-64
2023/06/19 11:56:16;;;;;;;14.95;13.60;;;33.30;49.40;;;;;;6403938;27;20231;-63
2023/06/19 11:59:19;;;;;;;19.00;14.30;;;33.50;48.90;;;;;;6384701;27;20224;-64
2023/06/19 12:02:22;;;;;;;15.13;13.93;;;33.70;48.40;;;;;;6354737;27;20216;-64
2023/06/19 12:05:26;;;;;;;14.38;13.15;;;33.90;48.70;;;;;;6387612;27;20298;-63
2023/06/19 12:08:30;;;;;;;14.65;13.35;;;34.00;47.40;;;;;;6388481;27;20230;-64
2023/06/19 12:11:33;;;;;;;15.00;13.80;;;33.90;47.70;;;;;;6384610;27;20581;-63
2023/06/19 12:14:37;;;;;;;14.35;13.35;;;33.90;47.10;;;;;;6364293;27;20231;-63
2023/06/19 12:17:40;;;;;;;14.70;13.52;;;33.80;47.20;;;;;;6388285;27;20327;-64
2023/06/19 12:20:43;;;;;;;14.35;13.25;;;33.70;47.50;;;;;;6402621;27;20238;-63
2023/06/19 12:23:49;;;;;;;13.93;12.82;;;33.70;47.70;;;;;;6403223;27;20219;-63
2023/06/19 12:26:52;;;;;;;14.48;13.38;;;33.60;47.90;;;;;;6403087;27;20227;-62
2023/06/19 12:29:56;;;;;;;14.50;13.48;;;33.50;47.90;;;;;;6402799;27;20234;-61
2023/06/19 12:32:59;;;;;;;14.68;12.70;;;33.70;48.10;;;;;;6403470;27;20327;-64
2023/06/19 12:36:03;;;;;;;15.00;13.85;;;33.70;47.80;;;;;;6403184;27;20243;-63
2023/06/19 12:39:14;;;;;;;15.10;14.00;;;33.50;48.40;;;;;;6402992;27;20238;-63
2023/06/19 12:42:18;;;;;;;13.25;12.25;;;33.60;49.10;;;;;;6402844;27;20314;-63
2023/06/19 12:45:21;;;;;;;14.98;13.60;;;33.70;49.10;;;;;;6402549;27;20242;-63
2023/06/19 12:48:24;;;;;;;15.25;14.07;;;33.40;48.80;;;;;;6402619;27;20230;-63
2023/06/19 12:51:28;;;;;;;16.75;15.55;;;33.00;49.40;;;;;;6402715;27;20257;-66
2023/06/19 12:54:36;;;;;;;15.70;14.55;;;33.00;50.10;;;;;;6402034;27;20262;-64
2023/06/19 12:57:40;;;;;;;16.77;15.50;;;32.60;50.30;;;;;;6385315;27;20231;-63
2023/06/19 13:00:43;;;;;;;15.73;14.52;;;32.40;50.70;;;;;;6363030;27;20309;-64
2023/06/19 13:03:47;;;;;;;16.40;15.20;;;32.30;51.10;;;;;;6351187;28;20217;-64
2023/06/19 13:06:50;;;;;;;16.33;15.18;;;32.50;50.60;;;;;;6380120;27;20320;-64
2023/06/19 13:09:55;;;;;;;16.50;15.10;;;32.40;50.60;;;;;;6389920;27;20215;-62
2023/06/19 13:12:58;;;;;;;15.85;14.65;;;32.60;51.00;;;;;;6385539;27;20262;-63
2023/06/19 13:16:01;;;;;;;15.43;14.32;;;32.50;51.50;;;;;;6375981;27;20234;-64
2023/06/19 13:19:05;;;;;;;15.07;13.85;;;32.40;52.80;;;;;;6375799;27;20228;-65
2023/06/19 13:22:08;;;;;;;15.38;14.07;;;32.40;53.70;;;;;;6375992;27;20224;-64
2023/06/19 13:25:15;;;;;;;14.27;13.18;;;32.70;53.50;;;;;;6375831;27;20230;-64
2023/06/19 13:28:18;;;;;;;14.80;13.77;;;32.60;53.00;;;;;;6375656;27;20232;-63
2023/06/19 13:31:21;;;;;;;14.60;13.57;;;32.50;52.90;;;;;;6375549;27;20318;-63
2023/06/19 13:34:27;;;;;;;14.98;13.77;;;32.20;53.10;;;;;;6375887;27;20228;-63
2023/06/19 13:37:31;;;;;;;14.82;13.63;;;32.20;53.20;;;;;;6375484;27;20224;-64
2023/06/19 13:40:35;;;;;;;14.27;13.18;;;32.20;53.00;;;;;;6375326;27;20757;-62
2023/06/19 13:43:39;;;;;;;15.32;14.02;;;32.00;52.20;;;;;;6375502;27;20200;-64
2023/06/19 13:46:43;;;;;;;13.82;12.82;;;31.90;52.80;;;;;;6375489;27;20243;-62
2023/06/19 13:49:46;;;;;;;15.25;14.15;;;32.00;52.80;;;;;;6375298;27;20532;-63
2023/06/19 13:52:49;;;;;;;14.18;13.13;;;32.00;52.40;;;;;;6374764;27;20308;-62
2023/06/19 13:55:54;;;;;;;14.02;12.93;;;31.70;53.10;;;;;;6375204;27;20224;-64
2023/06/19 13:58:59;;;;;;;14.60;13.25;;;31.70;53.00;;;;;;6368388;27;20610;-62
2023/06/19 14:02:02;;;;;;;14.18;13.13;;;31.50;53.00;;;;;;6349253;27;21029;-62
2023/06/19 14:05:06;;;;;;;13.73;12.57;;;31.60;53.00;;;;;;6360460;27;20277;-62
2023/06/19 14:08:09;;;;;;;14.05;12.68;;;31.40;52.60;;;;;;6366943;27;20239;-62
2023/06/19 14:11:14;;;;;;;14.90;13.75;;;31.50;52.90;;;;;;6367389;27;20628;-61
2023/06/19 14:14:17;;;;;;;14.27;13.18;;;31.60;53.10;;;;;;6349412;28;20603;-61
2023/06/19 14:17:22;;;;;;;13.73;12.65;;;31.60;53.00;;;;;;6340783;28;20228;-61
2023/06/19 14:20:25;;;;;;;14.18;13.07;;;31.60;53.10;;;;;;6361573;27;20312;-62
2023/06/19 14:23:29;;;;;;;14.40;13.40;;;31.60;52.80;;;;;;6374258;27;20556;-62
2023/06/19 14:26:33;;;;;;;14.20;13.10;;;31.40;53.00;;;;;;6373069;27;20570;-62
2023/06/19 14:29:36;;;;;;;15.15;14.02;;;31.10;53.70;;;;;;6374136;27;20566;-62
2023/06/19 14:32:39;;;;;;;14.90;13.65;;;31.20;53.70;;;;;;6374116;27;20559;-62
2023/06/19 14:35:45;;;;;;;15.63;14.13;;;31.30;53.80;;;;;;6374894;27;20233;-62
2023/06/19 14:38:49;;;;;;;14.30;13.20;;;31.40;53.60;;;;;;6350078;28;20369;-62
2023/06/19 14:41:53;;;;;;;13.10;12.13;;;31.40;53.50;;;;;;6348738;28;20229;-62
2023/06/19 14:44:57;;;;;;;15.70;14.10;;;31.30;53.70;;;;;;6348553;28;20247;-62
2023/06/19 14:48:00;;;;;;;15.40;14.20;;;31.10;54.20;;;;;;6348648;28;20295;-62
2023/06/19 14:51:04;;;;;;;13.93;12.88;;;31.20;54.50;;;;;;6331048;28;20656;-62
2023/06/19 14:54:07;;;;;;;14.82;13.63;;;31.30;53.90;;;;;;6349011;28;20236;-62
2023/06/19 14:57:12;;;;;;;15.23;13.98;;;31.00;53.60;;;;;;6348305;28;20221;-62
2023/06/19 15:00:16;;;;;;;14.13;13.13;;;31.00;54.10;;;;;;6365858;27;20228;-62
2023/06/19 15:03:19;;;;;;;14.70;13.40;;;31.20;54.30;;;;;;6381616;27;20216;-62
2023/06/19 15:06:22;;;;;;;15.15;13.95;;;31.30;54.40;;;;;;6386163;27;20543;-62
2023/06/19 15:09:26;;;;;;;14.48;13.20;;;31.30;54.70;;;;;;6399563;27;20276;-62
2023/06/19 15:12:32;;;;;;;15.30;13.88;;;31.00;55.40;;;;;;6391587;27;20230;-62
2023/06/19 15:15:35;;;;;;;15.10;13.88;;;30.90;55.50;;;;;;6399856;27;20234;-62
2023/06/19 15:18:38;;;;;;;14.80;13.43;;;30.70;54.70;;;;;;6399293;27;20220;-62
2023/06/19 15:21:42;;;;;;;15.48;13.93;;;30.50;55.40;;;;;;6389881;27;20227;-62
2023/06/19 15:24:45;;;;;;;13.80;12.77;;;30.50;55.50;;;;;;6399300;27;20533;-62
2023/06/19 15:27:50;;;;;;;15.45;14.27;;;30.40;55.70;;;;;;6399742;27;20247;-62
2023/06/19 15:30:53;;;;;;;14.00;13.00;;;30.40;55.90;;;;;;6399169;27;20361;-62
2023/06/19 15:33:56;;;;;;;15.50;14.15;;;30.30;56.10;;;;;;6399020;27;20216;-62